Weyauwega, Wisconsin
Current Conditions -  °F | °C
As of 9:55 PM on Sunday 23 Nov 2014 (Local Time) from KPCZ Reporting Station
Drizzle Drizzle  
Wind Chill: 46°   Ceiling: 200
Heat Index: 46°   Visibility: 0.25mi
Dew Point: 45°   Wind: 3mph
Humidity: 97%   Direction: 20°NNE
Pressure: 29.23"   Gusts: NA
Location:  44.32°N, 88.93°W
Report Text: KPCZ 240355Z AUTO 02003KT 1/4SM DZ OVC002 08/07 A2923 RMK AO2 T00750070
Loading
Personal Weather Stations






























Interactive Weather Map New forecast layout! Learn more

10-Day Weather Forecast

Advertisements
Track Severe Weather on mobile